This is the latest recevied weather packets stored in our database for station/object SQ3VAS-10. If no packets are shown the sender has not sent any weather packets the latest 10 day(s).
| Time | Temp. | Humidity | Pressure | Rain* | Wind** | Luminosity | Snow |
|---|---|---|---|---|---|---|---|
| 1778265420 | 13.33° C | 57% | 1020.9 hPa | - | - | - | - |
| 1778264848 | 13.33° C | 57% | 1020.8 hPa | - | - | - | - |
| 1778264277 | 13.89° C | 56% | 1020.6 hPa | - | - | - | - |
| 1778263706 | 14.44° C | 56% | 1020.5 hPa | - | - | - | - |
| 1778263134 | 14.44° C | 55% | 1020.4 hPa | - | - | - | - |
| 1778262563 | 15.56° C | 52% | 1020.3 hPa | - | - | - | - |
| 1778261992 | 16.11° C | 49% | 1020.2 hPa | - | - | - | - |
| 1778261421 | 16.67° C | 48% | 1020.2 hPa | - | - | - | - |
| 1778260849 | 16.67° C | 46% | 1020.2 hPa | - | - | - | - |
| 1778260278 | 17.22° C | 45% | 1020.1 hPa | - | - | - | - |
| 1778259708 | 18.33° C | 42% | 1020 hPa | - | - | - | - |
| 1778259137 | 18.89° C | 41% | 1019.9 hPa | - | - | - | - |
| 1778258563 | 18.89° C | 42% | 1019.9 hPa | - | - | - | - |
| 1778257994 | 19.44° C | 39% | 1019.8 hPa | - | - | - | - |
| 1778257421 | 19.44° C | 38% | 1019.9 hPa | - | - | - | - |
| 1778256849 | 19.44° C | 37% | 1019.8 hPa | - | - | - | - |
| 1778256277 | 20.56° C | 35% | 1019.7 hPa | - | - | - | - |
| 1778255706 | 21.11° C | 35% | 1019.7 hPa | - | - | - | - |
| 1778255135 | 21.67° C | 33% | 1019.7 hPa | - | - | - | - |
| 1778254564 | 22.22° C | 33% | 1019.8 hPa | - | - | - | - |
| 1778253990 | 23.33° C | 30% | 1019.4 hPa | - | - | - | - |
| 1778253418 | 25° C | 29% | 1019.5 hPa | - | - | - | - |
| 1778252843 | 21.11° C | 34% | 1019.9 hPa | - | - | - | - |
| 1778252272 | 21.67° C | 33% | 1020.1 hPa | - | - | - | - |
| 1778251700 | 21.67° C | 33% | 1020.1 hPa | - | - | - | - |
* Rain since midnight (hover to see other rain measurements)
** Current wind speed in m/s (hover to see current wind gust speed)